createdAt,value
2018-05-31T00:00:52.603Z,15.40
2018-05-31T00:01:52.583Z,15.80
2018-05-31T00:02:52.564Z,17.50
2018-05-31T00:03:52.542Z,16.10
2018-05-31T00:04:52.526Z,15.30
2018-05-31T00:05:52.500Z,23.40
2018-05-31T00:06:52.480Z,18.60
2018-05-31T00:07:52.610Z,20.90
2018-05-31T00:08:52.438Z,14.60
2018-05-31T00:09:52.418Z,17.00
2018-05-31T00:10:52.397Z,17.40
2018-05-31T00:11:52.383Z,21.20
2018-05-31T00:12:52.356Z,19.50
2018-05-31T00:13:52.337Z,23.50
2018-05-31T00:14:52.315Z,19.50
2018-05-31T00:15:52.295Z,24.00
2018-05-31T00:16:52.271Z,20.40
2018-05-31T00:17:52.252Z,22.00
2018-05-31T00:18:52.233Z,26.10
2018-05-31T00:19:52.363Z,22.00
2018-05-31T00:20:52.191Z,22.90
2018-05-31T00:21:52.170Z,19.60
2018-05-31T00:22:52.155Z,22.10
2018-05-31T00:23:52.130Z,23.20
2018-05-31T00:24:52.111Z,22.90
2018-05-31T00:25:52.096Z,21.50
2018-05-31T00:26:52.066Z,23.70
2018-05-31T00:27:52.047Z,24.40
2018-05-31T00:28:52.026Z,25.50
2018-05-31T00:29:52.007Z,21.40
2018-05-31T00:30:51.986Z,21.60
2018-05-31T00:31:51.965Z,25.20
2018-05-31T00:32:51.945Z,23.20
2018-05-31T00:33:51.923Z,23.60
2018-05-31T00:34:51.903Z,21.90
2018-05-31T00:35:51.882Z,20.90
2018-05-31T00:36:51.861Z,23.90
2018-05-31T00:37:51.842Z,25.50
2018-05-31T00:38:51.819Z,20.90
2018-05-31T00:39:51.802Z,23.60
2018-05-31T00:40:51.778Z,20.30
2018-05-31T00:41:51.771Z,22.20
2018-05-31T00:42:51.737Z,21.80
2018-05-31T00:43:51.723Z,22.50
2018-05-31T00:44:51.695Z,22.70
2018-05-31T00:45:51.708Z,22.30
2018-05-31T00:46:51.660Z,21.20
2018-05-31T00:47:51.634Z,26.60
2018-05-31T00:48:51.612Z,20.00
2018-05-31T00:49:51.596Z,21.10
2018-05-31T00:50:51.571Z,21.90
2018-05-31T00:51:51.552Z,22.90
2018-05-31T00:52:51.531Z,21.30
2018-05-31T00:53:51.510Z,21.60
2018-05-31T00:54:51.490Z,21.40
2018-05-31T00:55:51.469Z,21.50
2018-05-31T00:56:51.450Z,25.60
2018-05-31T00:57:51.427Z,24.10
2018-05-31T00:58:51.406Z,22.10
2018-05-31T00:59:51.389Z,21.30
2018-05-31T01:00:51.364Z,21.90
2018-05-31T01:01:51.344Z,19.70
2018-05-31T01:02:51.324Z,23.80
2018-05-31T01:03:51.303Z,22.00
2018-05-31T01:04:51.283Z,17.30
2018-05-31T01:05:51.269Z,21.00
2018-05-31T01:06:51.440Z,20.00
2018-05-31T01:07:51.223Z,19.70
2018-05-31T01:08:51.199Z,18.80
2018-05-31T01:09:51.206Z,18.10
2018-05-31T01:10:51.157Z,17.80
2018-05-31T01:11:51.147Z,19.70
2018-05-31T01:12:51.113Z,16.90
2018-05-31T01:13:51.094Z,22.60
2018-05-31T01:14:51.073Z,17.50
2018-05-31T01:15:51.054Z,18.10
2018-05-31T01:16:51.035Z,17.20
2018-05-31T01:17:51.011Z,16.30
2018-05-31T01:18:51.002Z,17.80
2018-05-31T01:19:50.972Z,16.30
2018-05-31T01:20:50.948Z,16.70
2018-05-31T01:21:50.930Z,18.30
2018-05-31T01:22:50.956Z,18.50
2018-05-31T01:23:50.886Z,17.90
2018-05-31T01:24:50.865Z,18.40
2018-05-31T01:25:50.843Z,22.10
2018-05-31T01:26:50.826Z,17.70
2018-05-31T01:27:50.804Z,15.00
2018-05-31T01:28:50.781Z,17.20
2018-05-31T01:29:50.760Z,16.00
2018-05-31T01:30:50.739Z,14.70
2018-05-31T01:31:50.719Z,18.50
2018-05-31T01:32:50.697Z,20.00
2018-05-31T01:33:50.679Z,16.50
2018-05-31T01:34:50.656Z,16.60
2018-05-31T01:35:50.639Z,14.40
2018-05-31T01:36:50.616Z,17.70
2018-05-31T01:37:50.592Z,15.40
2018-05-31T01:38:50.578Z,18.00
2018-05-31T01:39:50.551Z,19.80
2018-05-31T01:40:50.551Z,16.50
2018-05-31T01:41:50.507Z,17.30
2018-05-31T01:42:50.487Z,13.30
2018-05-31T01:43:50.468Z,14.30
2018-05-31T01:44:50.445Z,15.90
2018-05-31T01:45:50.424Z,17.40
2018-05-31T01:46:50.403Z,16.60
2018-05-31T01:47:50.382Z,16.20
2018-05-31T01:48:50.361Z,17.00
2018-05-31T01:49:50.339Z,14.50
2018-05-31T01:50:50.321Z,16.60
2018-05-31T01:51:50.297Z,18.00
2018-05-31T01:52:50.325Z,15.00
2018-05-31T01:53:50.255Z,14.00
2018-05-31T01:54:50.234Z,19.80
2018-05-31T01:55:50.212Z,12.90
2018-05-31T01:56:50.197Z,15.40
2018-05-31T01:57:50.172Z,14.10
2018-05-31T01:58:50.149Z,12.90
2018-05-31T01:59:50.132Z,13.90
2018-05-31T02:00:50.107Z,15.70
2018-05-31T02:01:50.085Z,16.20
2018-05-31T02:02:50.068Z,17.40
2018-05-31T02:03:50.049Z,17.70
2018-05-31T02:04:50.172Z,15.60
2018-05-31T02:05:50.004Z,14.70
2018-05-31T02:06:49.983Z,20.00
2018-05-31T02:07:49.959Z,16.00
2018-05-31T02:08:49.937Z,16.30
2018-05-31T02:09:49.922Z,12.10
2018-05-31T02:10:49.895Z,16.80
2018-05-31T02:11:49.875Z,16.10
2018-05-31T02:12:49.850Z,15.00
2018-05-31T02:13:49.831Z,16.50
2018-05-31T02:14:49.808Z,15.30
2018-05-31T02:15:49.791Z,16.00
2018-05-31T02:16:49.769Z,14.50
2018-05-31T02:17:49.745Z,15.20
2018-05-31T02:18:49.725Z,17.40
2018-05-31T02:19:49.705Z,15.50
2018-05-31T02:20:49.690Z,13.20
2018-05-31T02:21:49.660Z,15.20
2018-05-31T02:22:49.637Z,18.50
2018-05-31T02:23:49.618Z,14.30
2018-05-31T02:24:49.598Z,14.00
2018-05-31T02:25:49.574Z,14.30
2018-05-31T02:26:49.553Z,14.60
2018-05-31T02:27:49.532Z,13.90
2018-05-31T02:29:32.070Z,16.60
2018-05-31T02:30:31.844Z,14.90
2018-05-31T02:31:31.633Z,12.40
2018-05-31T02:32:31.599Z,17.30
2018-05-31T02:33:31.578Z,19.20
2018-05-31T02:34:31.555Z,14.30
2018-05-31T02:35:31.535Z,16.50
2018-05-31T02:36:31.513Z,17.50
2018-05-31T02:37:31.492Z,15.70
2018-05-31T02:38:31.473Z,17.10
2018-05-31T02:39:31.651Z,15.40
2018-05-31T02:40:31.427Z,15.40
2018-05-31T02:41:31.605Z,17.30
2018-05-31T02:42:31.384Z,14.80
2018-05-31T02:43:31.363Z,13.70
2018-05-31T02:44:31.340Z,14.60
2018-05-31T02:45:31.321Z,14.30
2018-05-31T02:46:31.301Z,20.00
2018-05-31T02:47:31.276Z,11.50
2018-05-31T02:48:31.255Z,12.10
2018-05-31T02:49:31.236Z,19.70
2018-05-31T02:50:31.220Z,14.10
2018-05-31T02:51:31.189Z,21.30
2018-05-31T02:52:31.168Z,11.40
2018-05-31T02:53:31.147Z,15.40
2018-05-31T02:54:31.331Z,24.50
2018-05-31T02:55:31.309Z,16.40
2018-05-31T02:56:31.284Z,16.10
2018-05-31T02:57:31.064Z,20.70
2018-05-31T02:58:31.238Z,12.70
2018-05-31T02:59:31.019Z,15.90
2018-05-31T03:00:30.996Z,14.00
2018-05-31T03:01:30.973Z,14.70
2018-05-31T03:02:30.952Z,17.80
2018-05-31T03:03:30.929Z,20.60
2018-05-31T03:04:30.908Z,14.20
2018-05-31T03:05:30.885Z,14.90
2018-05-31T03:06:30.865Z,12.60
2018-05-31T03:07:30.891Z,16.10
2018-05-31T03:08:30.819Z,16.20
2018-05-31T03:09:30.800Z,17.80
2018-05-31T03:10:30.776Z,18.60
2018-05-31T03:11:30.755Z,18.10
2018-05-31T03:12:30.733Z,13.50
2018-05-31T03:13:30.714Z,15.00
2018-05-31T03:14:30.688Z,12.50
2018-05-31T03:15:30.667Z,15.30
2018-05-31T03:16:30.795Z,16.10
2018-05-31T03:17:30.629Z,15.10
2018-05-31T03:18:30.602Z,15.30
2018-05-31T03:19:30.582Z,20.70
2018-05-31T03:20:30.558Z,17.00
2018-05-31T03:21:30.536Z,15.00
2018-05-31T03:22:30.514Z,16.80
2018-05-31T03:23:30.493Z,13.80
2018-05-31T03:24:30.471Z,15.40
2018-05-31T03:25:30.449Z,16.20
2018-05-31T03:26:30.427Z,16.70
2018-05-31T03:27:30.606Z,12.60
2018-05-31T03:28:30.385Z,15.40
2018-05-31T03:29:30.362Z,20.00
2018-05-31T03:30:30.340Z,15.00
2018-05-31T03:31:30.318Z,14.90
2018-05-31T03:32:30.296Z,18.50
2018-05-31T03:33:30.273Z,16.80
2018-05-31T03:34:30.453Z,18.20
2018-05-31T03:35:30.233Z,15.00
2018-05-31T03:36:30.210Z,16.60
2018-05-31T03:37:30.187Z,19.10
2018-05-31T03:38:30.170Z,14.90
2018-05-31T03:39:30.143Z,14.70
2018-05-31T03:40:30.121Z,15.70
2018-05-31T03:41:30.104Z,14.40
2018-05-31T03:42:30.077Z,15.40
2018-05-31T03:43:30.056Z,21.30
2018-05-31T03:44:30.041Z,16.90
2018-05-31T03:45:30.013Z,17.60
2018-05-31T03:46:29.991Z,16.00
2018-05-31T03:47:29.983Z,14.20
2018-05-31T03:48:29.947Z,16.70
2018-05-31T03:49:29.926Z,20.80
2018-05-31T03:50:29.903Z,13.80
2018-05-31T03:51:29.885Z,15.90
2018-05-31T03:52:29.861Z,15.50
2018-05-31T03:53:29.840Z,16.20
2018-05-31T03:54:29.818Z,15.80
2018-05-31T03:55:29.796Z,13.80
2018-05-31T03:56:29.775Z,18.20
2018-05-31T03:57:29.754Z,14.20
2018-05-31T03:58:29.739Z,16.00
2018-05-31T03:59:29.715Z,15.70
2018-05-31T04:00:29.692Z,14.20
2018-05-31T04:01:29.733Z,14.60
2018-05-31T04:02:29.850Z,18.60
2018-05-31T04:03:29.627Z,16.10
2018-05-31T04:04:29.606Z,14.60
2018-05-31T04:05:29.586Z,16.00
2018-05-31T04:06:29.563Z,17.20
2018-05-31T04:07:29.546Z,13.20
2018-05-31T04:08:29.522Z,13.10
2018-05-31T04:09:29.506Z,16.50
2018-05-31T04:10:29.683Z,13.90
2018-05-31T04:11:29.474Z,15.70
2018-05-31T04:12:29.442Z,13.70
2018-05-31T04:13:29.418Z,14.50
2018-05-31T04:14:29.400Z,13.40
2018-05-31T04:15:29.377Z,18.10
2018-05-31T04:16:29.357Z,15.70
2018-05-31T04:17:29.335Z,22.50
2018-05-31T04:18:29.314Z,16.60
2018-05-31T04:19:29.292Z,14.30
2018-05-31T04:20:29.274Z,15.10
2018-05-31T04:21:29.251Z,14.90
2018-05-31T04:22:29.433Z,14.80
2018-05-31T04:23:29.211Z,13.90
2018-05-31T04:24:29.196Z,15.40
2018-05-31T04:25:29.173Z,13.70
2018-05-31T04:26:29.155Z,15.00
2018-05-31T04:27:29.129Z,18.70
2018-05-31T04:28:29.109Z,17.80
2018-05-31T04:29:29.089Z,18.10
2018-05-31T04:30:29.067Z,15.40
2018-05-31T04:31:29.049Z,17.00
2018-05-31T04:32:29.029Z,14.10
2018-05-31T04:33:29.008Z,16.90
2018-05-31T04:34:28.989Z,21.20
2018-05-31T04:35:28.966Z,14.00
2018-05-31T04:36:28.949Z,20.00
2018-05-31T04:37:28.928Z,17.70
2018-05-31T04:38:28.911Z,24.50
2018-05-31T04:39:28.893Z,17.40
2018-05-31T04:40:28.871Z,22.00
2018-05-31T04:41:28.848Z,20.00
2018-05-31T04:42:28.856Z,17.70
2018-05-31T04:43:28.809Z,15.70
2018-05-31T04:44:28.789Z,19.50
2018-05-31T04:45:28.773Z,20.20
2018-05-31T04:46:28.756Z,23.00
2018-05-31T04:47:28.730Z,19.60
2018-05-31T04:48:28.710Z,11.90
2018-05-31T04:49:28.691Z,16.80
2018-05-31T04:50:28.671Z,17.00
2018-05-31T04:51:28.656Z,16.50
2018-05-31T04:52:28.634Z,18.90
2018-05-31T04:53:28.617Z,21.70
2018-05-31T04:54:28.593Z,15.60
2018-05-31T04:55:28.574Z,15.60
2018-05-31T04:56:28.555Z,15.70
2018-05-31T04:57:28.536Z,11.70
2018-05-31T04:58:28.515Z,20.30
2018-05-31T04:59:28.497Z,14.40
2018-05-31T05:00:28.478Z,16.10
2018-05-31T05:01:28.460Z,16.80
2018-05-31T05:02:28.443Z,16.10
2018-05-31T05:03:28.421Z,21.60
2018-05-31T05:04:28.411Z,26.60
2018-05-31T05:05:28.385Z,19.90
2018-05-31T05:06:28.364Z,15.30
2018-05-31T05:07:28.347Z,15.70
2018-05-31T05:08:28.335Z,13.90
2018-05-31T05:09:28.311Z,18.00
2018-05-31T05:10:28.293Z,16.20
2018-05-31T05:11:28.272Z,12.80
2018-05-31T05:12:28.256Z,17.40
2018-05-31T05:13:28.242Z,19.40
2018-05-31T05:14:28.216Z,14.00
2018-05-31T05:15:28.199Z,17.70
2018-05-31T05:16:28.181Z,16.10
2018-05-31T05:17:28.162Z,16.70
2018-05-31T05:18:28.143Z,19.10
2018-05-31T05:19:28.130Z,16.80
2018-05-31T05:20:28.112Z,18.10
2018-05-31T05:21:28.091Z,15.10
2018-05-31T05:22:28.071Z,17.90
2018-05-31T05:23:28.053Z,14.50
2018-05-31T05:24:28.039Z,21.50
2018-05-31T05:25:28.026Z,28.80
2018-05-31T05:26:28.017Z,19.20
2018-05-31T05:27:27.981Z,17.20
2018-05-31T05:28:27.963Z,18.90
2018-05-31T05:29:27.946Z,18.80
2018-05-31T05:30:27.934Z,13.10
2018-05-31T05:31:27.910Z,16.00
2018-05-31T05:32:27.933Z,20.50
2018-05-31T05:33:27.881Z,16.60
2018-05-31T05:34:27.856Z,19.50
2018-05-31T05:35:27.839Z,17.00
2018-05-31T05:36:27.822Z,16.00
2018-05-31T05:37:27.807Z,13.50
2018-05-31T05:38:27.788Z,15.80
2018-05-31T05:39:27.975Z,21.60
2018-05-31T05:40:27.753Z,20.40
2018-05-31T05:41:27.739Z,17.00
2018-05-31T05:42:27.717Z,22.60
2018-05-31T05:43:27.705Z,20.10
2018-05-31T05:44:27.687Z,24.80
2018-05-31T05:45:27.666Z,20.00
2018-05-31T05:46:27.649Z,20.40
2018-05-31T05:47:27.632Z,20.30
2018-05-31T05:48:27.615Z,15.50
2018-05-31T05:49:27.598Z,15.10
2018-05-31T05:50:27.580Z,20.40
2018-05-31T05:51:27.572Z,13.30
2018-05-31T05:52:27.548Z,19.00
2018-05-31T05:53:27.534Z,17.00
2018-05-31T05:54:27.514Z,17.00
2018-05-31T05:55:27.497Z,17.90
2018-05-31T05:56:27.498Z,17.70
2018-05-31T05:57:27.465Z,15.90
2018-05-31T05:58:27.453Z,25.20
2018-05-31T05:59:27.634Z,20.60
2018-05-31T06:00:27.619Z,15.10
2018-05-31T06:01:27.400Z,18.80
2018-05-31T06:02:27.382Z,22.10
2018-05-31T06:03:27.366Z,17.80
2018-05-31T06:04:27.553Z,24.10
2018-05-31T06:05:27.335Z,21.40
2018-05-31T06:06:27.318Z,20.50
2018-05-31T06:07:27.303Z,25.00
2018-05-31T06:08:27.316Z,23.10
2018-05-31T06:09:27.279Z,18.20
2018-05-31T06:10:27.257Z,20.60
2018-05-31T06:11:27.241Z,28.30
2018-05-31T06:12:27.225Z,31.20
2018-05-31T06:13:27.210Z,21.60
2018-05-31T06:14:27.193Z,29.50
2018-05-31T06:15:27.439Z,27.50
2018-05-31T06:16:27.162Z,27.90
2018-05-31T06:17:27.154Z,22.80
2018-05-31T06:18:27.132Z,21.50
2018-05-31T06:19:27.118Z,22.20
2018-05-31T06:20:27.102Z,18.40
2018-05-31T06:21:27.289Z,21.40
2018-05-31T06:22:27.071Z,15.60
2018-05-31T06:23:27.062Z,24.40
2018-05-31T06:24:27.042Z,20.40
2018-05-31T06:25:27.027Z,23.30
2018-05-31T06:26:27.056Z,20.30
2018-05-31T06:27:26.998Z,15.80
2018-05-31T06:28:27.187Z,18.10
2018-05-31T06:29:26.967Z,19.20
2018-05-31T06:30:26.955Z,23.70
2018-05-31T06:31:26.938Z,27.50
2018-05-31T06:32:26.923Z,31.70
2018-05-31T06:33:26.909Z,33.10
2018-05-31T06:34:26.893Z,24.10
2018-05-31T06:35:27.888Z,20.70
2018-05-31T06:36:26.864Z,20.80
2018-05-31T06:37:27.142Z,18.60
2018-05-31T06:38:26.860Z,21.90
2018-05-31T06:39:26.821Z,17.30
2018-05-31T06:40:26.806Z,15.30
2018-05-31T06:41:26.995Z,19.10
2018-05-31T06:42:26.981Z,18.00
2018-05-31T06:43:26.769Z,21.90
2018-05-31T06:44:26.754Z,19.80
2018-05-31T06:45:26.735Z,18.20
2018-05-31T06:46:26.720Z,18.40
2018-05-31T06:47:26.716Z,15.00
2018-05-31T06:48:26.696Z,24.30
2018-05-31T06:49:26.682Z,24.20
2018-05-31T06:50:26.667Z,21.10
2018-05-31T06:51:26.656Z,23.40
2018-05-31T06:52:26.639Z,24.80
2018-05-31T06:53:26.624Z,20.30
2018-05-31T06:54:26.659Z,16.50
2018-05-31T06:55:26.596Z,19.20
2018-05-31T06:56:26.582Z,18.90
2018-05-31T06:57:26.570Z,24.20
2018-05-31T06:58:26.555Z,22.50
2018-05-31T06:59:26.544Z,20.10
2018-05-31T07:00:26.538Z,25.00
2018-05-31T07:01:26.521Z,24.80
2018-05-31T07:02:26.506Z,19.40
2018-05-31T07:03:26.490Z,22.00
2018-05-31T07:04:26.476Z,24.20
2018-05-31T07:05:26.665Z,17.60
2018-05-31T07:16:59.055Z,16.50
2018-05-31T07:17:58.838Z,16.90
2018-05-31T07:18:59.031Z,14.30
2018-05-31T07:19:58.815Z,18.50
2018-05-31T07:20:59.007Z,13.40
2018-05-31T07:21:58.990Z,12.30
2018-05-31T07:23:01.600Z,18.10
2018-05-31T07:23:58.763Z,12.10
2018-05-31T07:24:58.754Z,19.20
2018-05-31T07:25:58.738Z,12.50
2018-05-31T07:26:58.929Z,18.50
2018-05-31T07:27:58.747Z,20.00
2018-05-31T07:28:58.795Z,13.00
2018-05-31T07:31:23.219Z,17.30
2018-05-31T07:32:23.001Z,23.40
2018-05-31T07:33:22.989Z,24.80
2018-05-31T07:34:22.978Z,28.80
2018-05-31T07:35:22.968Z,17.60
2018-05-31T07:36:25.778Z,13.60
2018-05-31T07:37:23.145Z,18.60
2018-05-31T07:38:23.133Z,12.90
2018-05-31T07:39:23.125Z,15.90
2018-05-31T07:40:23.115Z,13.20
2018-05-31T07:41:22.898Z,15.10
2018-05-31T07:42:23.087Z,11.90
2018-05-31T07:43:22.873Z,14.70
2018-05-31T07:44:22.902Z,11.90
2018-05-31T07:45:22.850Z,13.00
2018-05-31T07:46:23.040Z,16.70
2018-05-31T07:47:22.828Z,11.40
2018-05-31T07:48:22.816Z,12.40
2018-05-31T07:49:22.805Z,14.00
2018-05-31T07:50:22.795Z,14.10
2018-05-31T07:51:22.792Z,13.20
2018-05-31T07:52:22.771Z,17.00
2018-05-31T07:53:22.762Z,13.10
2018-05-31T07:54:22.751Z,15.10
2018-05-31T07:55:22.743Z,17.90
2018-05-31T07:56:22.732Z,15.40
2018-05-31T07:57:22.721Z,20.50
2018-05-31T07:58:22.776Z,17.80
2018-05-31T07:59:22.699Z,19.80
2018-05-31T08:00:22.689Z,23.60
2018-05-31T08:01:22.679Z,18.80
2018-05-31T08:02:22.671Z,13.40
2018-05-31T08:03:22.667Z,10.50
2018-05-31T08:04:22.648Z,12.00
2018-05-31T08:05:22.638Z,11.80
2018-05-31T08:06:22.637Z,11.20
2018-05-31T08:07:22.619Z,16.10
2018-05-31T08:08:22.612Z,17.00
2018-05-31T08:09:22.599Z,12.10
2018-05-31T08:10:22.590Z,12.90
2018-05-31T08:11:22.588Z,20.30
2018-05-31T08:12:22.568Z,12.20
2018-05-31T08:13:22.557Z,18.80
2018-05-31T08:14:22.549Z,19.30
2018-05-31T08:15:22.540Z,23.60
2018-05-31T08:16:22.531Z,21.00
2018-05-31T08:17:22.516Z,14.10
2018-05-31T08:18:22.508Z,11.50
2018-05-31T08:19:22.500Z,16.00
2018-05-31T08:20:22.486Z,12.60
2018-05-31T08:21:22.475Z,8.80
2018-05-31T08:22:22.465Z,12.00
2018-05-31T08:23:22.457Z,11.10
2018-05-31T08:24:22.445Z,13.60
2018-05-31T08:25:22.436Z,12.30
2018-05-31T08:26:22.425Z,9.60
2018-05-31T08:27:22.415Z,14.20
2018-05-31T08:28:22.422Z,16.30
2018-05-31T08:29:22.395Z,14.50
2018-05-31T08:30:22.389Z,19.30
2018-05-31T08:31:22.427Z,21.00
2018-05-31T08:32:22.379Z,21.30
2018-05-31T08:33:22.354Z,13.10
2018-05-31T08:34:22.348Z,11.60
2018-05-31T08:35:22.335Z,14.90
2018-05-31T08:36:22.325Z,13.70
2018-05-31T08:37:22.320Z,14.60
2018-05-31T08:38:22.306Z,11.70
2018-05-31T08:39:22.297Z,8.60
2018-05-31T08:40:22.287Z,10.30
2018-05-31T08:41:22.277Z,13.30
2018-05-31T08:42:22.269Z,9.00
2018-05-31T08:43:22.259Z,14.30
2018-05-31T08:44:22.255Z,10.10
2018-05-31T08:45:22.242Z,20.60
2018-05-31T08:46:22.234Z,17.40
2018-05-31T08:47:22.236Z,18.80
2018-05-31T08:48:22.213Z,17.60
2018-05-31T08:49:22.204Z,20.40
2018-05-31T08:50:22.271Z,23.70
2018-05-31T08:51:22.208Z,16.00
2018-05-31T08:52:22.178Z,16.60
2018-05-31T08:53:22.172Z,12.10
2018-05-31T08:54:22.159Z,14.90
2018-05-31T08:55:22.152Z,12.20
2018-05-31T08:56:22.148Z,11.90
2018-05-31T08:57:22.144Z,15.30
2018-05-31T08:58:22.125Z,10.90
2018-05-31T08:59:22.117Z,8.80
2018-05-31T09:00:22.109Z,12.50
2018-05-31T09:01:22.106Z,10.60
2018-05-31T09:02:22.106Z,13.30
2018-05-31T09:03:22.091Z,12.90
2018-05-31T09:04:22.078Z,13.40
2018-05-31T09:05:22.067Z,10.80
2018-05-31T09:06:22.058Z,10.50
2018-05-31T09:07:22.084Z,11.80
2018-05-31T09:08:22.046Z,10.90
2018-05-31T09:09:22.051Z,13.60
2018-05-31T09:10:22.078Z,11.30
2018-05-31T09:11:22.049Z,14.00
2018-05-31T09:12:22.010Z,13.30
2018-05-31T09:13:22.002Z,9.70
2018-05-31T09:14:22.048Z,11.10
2018-05-31T09:15:21.987Z,15.50
2018-05-31T09:16:21.978Z,10.20
2018-05-31T09:17:21.971Z,9.20
2018-05-31T09:18:21.963Z,14.10
2018-05-31T09:19:21.956Z,9.50
2018-05-31T09:20:21.948Z,13.60
2018-05-31T09:21:21.941Z,11.10
2018-05-31T09:22:21.933Z,12.10
2018-05-31T09:23:21.928Z,16.00
2018-05-31T09:24:21.918Z,15.20
2018-05-31T09:25:21.910Z,10.60
2018-05-31T09:26:21.906Z,11.80
2018-05-31T09:27:21.898Z,10.60
2018-05-31T09:28:21.888Z,13.20
2018-05-31T09:29:21.881Z,11.30
2018-05-31T09:30:21.881Z,8.40
2018-05-31T09:31:21.866Z,13.10
2018-05-31T09:32:21.866Z,8.40
2018-05-31T09:33:21.853Z,11.10
2018-05-31T09:34:21.846Z,11.90
2018-05-31T09:35:21.839Z,9.60
2018-05-31T09:36:21.832Z,11.70
2018-05-31T09:37:21.824Z,12.80
2018-05-31T09:38:21.821Z,9.70
2018-05-31T09:39:21.812Z,10.10
2018-05-31T09:40:21.807Z,9.20
2018-05-31T09:41:21.818Z,7.70
2018-05-31T09:42:21.792Z,10.00
2018-05-31T09:43:21.785Z,10.30
2018-05-31T09:44:21.777Z,10.60
2018-05-31T09:45:21.771Z,19.20
2018-05-31T09:46:21.764Z,23.10
2018-05-31T09:47:21.761Z,16.10
2018-05-31T09:48:21.756Z,14.80
2018-05-31T09:49:21.745Z,9.70
2018-05-31T09:50:21.738Z,11.40
2018-05-31T09:51:21.742Z,13.50
2018-05-31T09:52:21.727Z,19.60
2018-05-31T09:53:21.717Z,15.30
2018-05-31T09:54:21.711Z,13.40
2018-05-31T09:55:21.704Z,9.60
2018-05-31T09:56:21.697Z,13.20
2018-05-31T09:57:21.690Z,8.40
2018-05-31T09:58:21.683Z,11.10
2018-05-31T09:59:21.682Z,19.10
2018-05-31T10:00:21.670Z,15.70
2018-05-31T10:01:21.664Z,12.20
2018-05-31T10:02:21.658Z,7.70
2018-05-31T10:03:21.651Z,11.60
2018-05-31T10:04:21.644Z,12.10
2018-05-31T10:05:21.638Z,15.30
2018-05-31T10:06:21.632Z,13.40
2018-05-31T10:07:21.630Z,14.40
2018-05-31T10:08:21.644Z,12.30
2018-05-31T10:09:21.616Z,9.30
2018-05-31T10:10:21.607Z,12.40
2018-05-31T10:11:21.602Z,11.80
2018-05-31T10:12:21.593Z,9.50
2018-05-31T10:13:21.587Z,10.80
2018-05-31T10:14:21.581Z,10.10
2018-05-31T10:15:21.578Z,12.40
2018-05-31T10:16:21.566Z,13.80
2018-05-31T10:17:21.562Z,11.70
2018-05-31T10:18:21.584Z,13.70
2018-05-31T10:19:21.550Z,15.90
2018-05-31T10:20:21.540Z,12.50
2018-05-31T10:21:21.533Z,12.40
2018-05-31T10:22:21.527Z,11.80
2018-05-31T10:23:21.522Z,10.50
2018-05-31T10:24:21.514Z,11.70
2018-05-31T10:25:21.507Z,9.80
2018-05-31T10:26:21.501Z,10.40
2018-05-31T10:27:21.492Z,11.30
2018-05-31T10:28:21.485Z,12.10
2018-05-31T10:29:21.512Z,13.50
2018-05-31T10:30:21.485Z,16.20
2018-05-31T10:31:21.464Z,11.30
2018-05-31T10:32:21.466Z,18.90
2018-05-31T10:33:21.451Z,22.10
2018-05-31T10:34:21.445Z,11.70
2018-05-31T10:35:21.453Z,13.50
2018-05-31T10:36:21.430Z,13.70
2018-05-31T10:37:21.425Z,30.20
2018-05-31T10:38:21.417Z,17.60
2018-05-31T10:39:21.411Z,12.40
2018-05-31T10:40:21.402Z,9.60
2018-05-31T10:41:21.397Z,9.50
2018-05-31T10:42:21.391Z,10.90
2018-05-31T10:43:21.388Z,15.70
2018-05-31T10:44:21.378Z,10.70
2018-05-31T10:45:21.372Z,9.80
2018-05-31T10:46:21.422Z,12.60
2018-05-31T10:47:21.367Z,13.30
2018-05-31T10:48:21.358Z,8.00
2018-05-31T10:49:21.346Z,9.70
2018-05-31T10:50:21.349Z,7.80
2018-05-31T10:51:21.337Z,12.10
2018-05-31T10:52:21.327Z,14.20
2018-05-31T10:53:21.322Z,14.20
2018-05-31T10:54:21.316Z,22.70
2018-05-31T10:55:21.313Z,12.20
2018-05-31T10:56:21.308Z,13.60
2018-05-31T10:57:21.304Z,12.50
2018-05-31T10:58:21.294Z,11.80
2018-05-31T10:59:21.331Z,14.50
2018-05-31T11:00:21.289Z,10.50
2018-05-31T11:01:21.281Z,11.70
2018-05-31T11:02:21.271Z,10.50
2018-05-31T11:03:21.264Z,14.10
2018-05-31T11:04:21.259Z,9.10
2018-05-31T11:05:21.253Z,11.30
2018-05-31T11:06:21.252Z,9.10
2018-05-31T11:07:21.242Z,13.10
2018-05-31T11:08:21.240Z,11.50
2018-05-31T11:09:21.236Z,11.80
2018-05-31T11:10:21.228Z,8.50
2018-05-31T11:11:21.220Z,10.10
2018-05-31T11:12:21.229Z,14.40
2018-05-31T11:13:21.249Z,15.40
2018-05-31T11:14:21.201Z,10.90
2018-05-31T11:15:21.221Z,8.00
2018-05-31T11:16:21.188Z,9.30
2018-05-31T11:17:21.190Z,12.90
2018-05-31T11:18:21.179Z,11.90
2018-05-31T11:19:21.170Z,14.90
2018-05-31T11:20:21.166Z,18.40
2018-05-31T11:21:21.155Z,11.10
2018-05-31T11:22:21.161Z,8.70
2018-05-31T11:23:21.145Z,8.90
2018-05-31T11:24:21.137Z,12.70
2018-05-31T11:25:21.137Z,12.60
2018-05-31T11:26:21.142Z,16.00
2018-05-31T11:27:21.121Z,23.90
2018-05-31T11:28:21.120Z,26.80
2018-05-31T11:29:21.110Z,13.50
2018-05-31T11:30:21.104Z,14.10
2018-05-31T11:31:21.098Z,23.10
2018-05-31T11:32:21.092Z,15.30
2018-05-31T11:33:21.092Z,9.00
2018-05-31T11:34:21.080Z,10.20
2018-05-31T11:35:21.076Z,11.80
2018-05-31T11:36:21.070Z,8.20
2018-05-31T11:37:21.064Z,8.80
2018-05-31T11:38:21.060Z,8.50
2018-05-31T11:39:21.063Z,8.20
2018-05-31T11:40:21.047Z,11.20
2018-05-31T11:41:21.045Z,11.30
2018-05-31T11:42:21.039Z,13.80
2018-05-31T11:43:21.032Z,12.10
2018-05-31T11:44:21.025Z,10.80
2018-05-31T11:45:21.019Z,15.60
2018-05-31T11:46:21.014Z,16.50
2018-05-31T11:47:21.010Z,14.20
2018-05-31T11:48:21.002Z,10.40
2018-05-31T11:49:21.000Z,9.40
2018-05-31T11:50:20.993Z,8.40
2018-05-31T11:51:20.988Z,8.80
2018-05-31T11:52:20.986Z,11.50
2018-05-31T11:53:20.977Z,10.80
2018-05-31T11:54:20.981Z,13.90
2018-05-31T11:55:20.968Z,12.80
2018-05-31T11:56:21.016Z,10.00
2018-05-31T11:57:20.981Z,13.60
2018-05-31T11:58:20.955Z,12.40
2018-05-31T11:59:20.954Z,8.10
2018-05-31T12:00:20.954Z,11.30
2018-05-31T12:01:20.946Z,7.90
2018-05-31T12:02:20.940Z,12.50
2018-05-31T12:03:20.934Z,8.80
2018-05-31T12:04:20.930Z,11.00
2018-05-31T12:05:20.927Z,11.20
2018-05-31T12:06:20.923Z,10.90
2018-05-31T12:07:20.919Z,9.20
2018-05-31T12:08:20.931Z,10.30
2018-05-31T12:09:20.912Z,6.60
2018-05-31T12:10:20.912Z,8.30
2018-05-31T12:11:20.909Z,11.00
2018-05-31T12:12:20.904Z,8.30
2018-05-31T12:13:20.897Z,16.30
2018-05-31T12:14:20.892Z,19.30
2018-05-31T12:15:20.905Z,8.70
2018-05-31T12:16:20.885Z,10.90
2018-05-31T12:17:20.894Z,10.10
2018-05-31T12:18:20.878Z,8.70
2018-05-31T12:19:20.874Z,8.10
2018-05-31T12:20:20.872Z,12.70
2018-05-31T12:21:20.870Z,12.60
2018-05-31T12:22:20.862Z,9.00
2018-05-31T12:23:20.885Z,10.30
2018-05-31T12:24:20.855Z,8.20
2018-05-31T12:25:20.851Z,8.40
2018-05-31T12:26:20.875Z,10.30
2018-05-31T12:27:20.845Z,11.60
2018-05-31T12:28:20.840Z,11.00
2018-05-31T12:29:20.836Z,11.50
2018-05-31T12:30:20.833Z,17.00
2018-05-31T12:31:20.830Z,11.60
2018-05-31T12:32:20.828Z,13.10
2018-05-31T12:33:20.821Z,11.90
2018-05-31T12:34:20.819Z,10.60
2018-05-31T12:35:20.814Z,11.40
2018-05-31T12:36:20.809Z,11.30
2018-05-31T12:37:20.805Z,10.70
2018-05-31T12:38:20.806Z,10.20
2018-05-31T12:39:20.803Z,11.40
2018-05-31T12:40:20.799Z,10.20
2018-05-31T12:41:20.789Z,8.30
2018-05-31T12:42:20.787Z,12.40
2018-05-31T12:43:20.781Z,8.90
2018-05-31T12:44:20.783Z,8.00
2018-05-31T12:45:20.776Z,7.80
2018-05-31T12:46:20.782Z,9.80
2018-05-31T12:47:20.763Z,11.10
2018-05-31T12:48:20.758Z,9.50
2018-05-31T12:49:20.752Z,9.70
2018-05-31T12:50:20.748Z,12.10
2018-05-31T12:51:20.743Z,9.60
2018-05-31T12:52:20.739Z,10.50
2018-05-31T12:53:20.732Z,9.70
2018-05-31T12:54:20.729Z,10.20
2018-05-31T12:55:20.727Z,11.20
2018-05-31T12:56:20.716Z,8.90
2018-05-31T12:57:20.715Z,7.40
2018-05-31T12:58:20.708Z,9.90
2018-05-31T12:59:20.703Z,10.20
2018-05-31T13:00:20.697Z,8.60
2018-05-31T13:01:20.692Z,8.50
2018-05-31T13:02:20.689Z,8.20
2018-05-31T13:03:20.718Z,11.00
2018-05-31T13:04:20.680Z,8.50
2018-05-31T13:05:20.684Z,10.30
2018-05-31T13:06:20.669Z,10.70
2018-05-31T13:07:20.665Z,8.70
2018-05-31T13:08:20.664Z,7.50